createdAt,value
2023-01-19T00:01:35.142Z,8.57
2023-01-19T00:04:02.858Z,8.75
2023-01-19T00:06:31.411Z,9.07
2023-01-19T00:08:59.993Z,8.90
2023-01-19T00:11:27.693Z,8.43
2023-01-19T00:13:57.734Z,8.98
2023-01-19T00:16:25.715Z,9.10
2023-01-19T00:18:54.265Z,9.85
2023-01-19T00:21:23.133Z,8.65
2023-01-19T00:23:52.666Z,8.75
2023-01-19T00:26:22.664Z,9.57
2023-01-19T00:28:51.392Z,8.60
2023-01-19T00:31:21.630Z,8.38
2023-01-19T00:33:52.499Z,9.25
2023-01-19T00:36:20.477Z,9.05
2023-01-19T00:38:48.909Z,8.88
2023-01-19T00:41:16.890Z,8.30
2023-01-19T00:43:43.709Z,9.00
2023-01-19T00:49:06.680Z,9.00
2023-01-19T00:51:34.421Z,9.25
2023-01-19T00:54:04.938Z,9.45
2023-01-19T00:56:33.235Z,9.40
2023-01-19T00:59:01.376Z,9.30
2023-01-19T01:01:45.103Z,10.05
2023-01-19T01:04:15.558Z,9.38
2023-01-19T01:06:43.291Z,9.48
2023-01-19T01:09:12.667Z,9.60
2023-01-19T01:11:40.561Z,9.98
2023-01-19T01:14:09.715Z,10.10
2023-01-19T01:16:39.432Z,10.02
2023-01-19T01:19:07.172Z,10.50
2023-01-19T01:21:37.267Z,10.60
2023-01-19T01:24:05.455Z,10.18
2023-01-19T01:26:33.057Z,10.23
2023-01-19T01:29:00.730Z,10.30
2023-01-19T01:31:28.858Z,10.43
2023-01-19T01:33:57.419Z,10.02
2023-01-19T01:36:27.371Z,10.50
2023-01-19T01:38:56.273Z,10.50
2023-01-19T01:41:25.477Z,10.82
2023-01-19T01:43:58.480Z,10.18
2023-01-19T01:49:03.239Z,10.15
2023-01-19T01:51:35.626Z,10.05
2023-01-19T01:54:17.512Z,10.05
2023-01-19T01:56:49.879Z,10.75
2023-01-19T01:59:26.539Z,11.45
2023-01-19T02:02:14.390Z,10.15
2023-01-19T02:04:47.502Z,10.32
2023-01-19T02:10:52.902Z,10.55
2023-01-19T02:13:21.420Z,10.00
2023-01-19T02:15:52.535Z,10.90
2023-01-19T02:21:00.087Z,10.32
2023-01-19T02:23:38.897Z,10.30
2023-01-19T02:26:09.396Z,11.10
2023-01-19T02:28:42.053Z,10.52
2023-01-19T02:31:10.591Z,10.63
2023-01-19T02:33:38.580Z,10.43
2023-01-19T02:36:09.362Z,10.05
2023-01-19T02:38:42.420Z,10.60
2023-01-19T02:41:13.181Z,10.43
2023-01-19T02:43:42.700Z,10.77
2023-01-19T02:46:11.395Z,9.88
2023-01-19T02:49:06.359Z,10.15
2023-01-19T02:51:34.830Z,9.50
2023-01-19T02:54:29.489Z,9.93
2023-01-19T02:57:13.434Z,9.38
2023-01-19T02:59:55.435Z,8.93
2023-01-19T03:02:36.950Z,9.68
2023-01-19T03:07:52.376Z,9.38
2023-01-19T03:10:32.100Z,9.60
2023-01-19T03:13:04.288Z,9.05
2023-01-19T03:15:45.438Z,9.75
2023-01-19T03:18:21.030Z,9.68
2023-01-19T03:20:51.806Z,9.45
2023-01-19T03:23:23.384Z,9.63
2023-01-19T03:25:57.805Z,10.13
2023-01-19T03:28:31.376Z,9.80
2023-01-19T03:31:06.048Z,9.60
2023-01-19T03:33:38.763Z,9.70
2023-01-19T03:36:13.461Z,10.00
2023-01-19T03:38:44.156Z,9.43
2023-01-19T03:41:17.075Z,9.27
2023-01-19T03:43:46.645Z,9.40
2023-01-19T03:46:17.466Z,9.60
2023-01-19T03:48:46.179Z,9.93
2023-01-19T03:51:19.393Z,9.48
2023-01-19T03:53:47.456Z,9.23
2023-01-19T03:56:21.073Z,9.57
2023-01-19T03:58:48.813Z,9.48
2023-01-19T04:01:23.502Z,9.23
2023-01-19T04:03:52.673Z,9.65
2023-01-19T04:06:21.632Z,8.77
2023-01-19T04:08:51.588Z,9.23
2023-01-19T04:11:20.574Z,9.05
2023-01-19T04:13:48.904Z,9.10
2023-01-19T04:16:19.994Z,9.05
2023-01-19T04:18:48.284Z,9.48
2023-01-19T04:21:16.379Z,9.18
2023-01-19T04:23:45.931Z,8.90
2023-01-19T04:26:13.719Z,9.57
2023-01-19T04:28:43.591Z,8.77
2023-01-19T04:31:11.301Z,9.15
2023-01-19T04:34:04.726Z,8.75
2023-01-19T04:36:32.907Z,9.30
2023-01-19T04:39:00.892Z,8.88
2023-01-19T04:41:30.223Z,9.48
2023-01-19T04:43:59.497Z,8.52
2023-01-19T04:46:27.945Z,9.35
2023-01-19T04:48:56.593Z,8.73
2023-01-19T04:51:24.889Z,9.25
2023-01-19T04:53:52.885Z,8.65
2023-01-19T04:56:21.446Z,9.40
2023-01-19T04:58:50.715Z,9.25
2023-01-19T05:01:19.786Z,9.05
2023-01-19T05:03:47.642Z,9.07
2023-01-19T05:06:16.372Z,9.60
2023-01-19T05:08:45.520Z,11.80
2023-01-19T05:11:13.944Z,9.80
2023-01-19T05:13:44.365Z,10.60
2023-01-19T05:16:13.876Z,10.20
2023-01-19T05:18:42.888Z,8.45
2023-01-19T05:21:12.967Z,8.68
2023-01-19T05:23:45.387Z,10.02
2023-01-19T05:26:14.775Z,8.82
2023-01-19T05:28:43.447Z,9.43
2023-01-19T05:31:11.919Z,9.00
2023-01-19T05:33:39.595Z,11.43
2023-01-19T05:36:08.919Z,8.95
2023-01-19T05:38:36.566Z,9.52
2023-01-19T05:41:04.261Z,7.93
2023-01-19T05:43:32.097Z,7.97
2023-01-19T05:45:59.861Z,7.55
2023-01-19T05:48:27.468Z,7.30
2023-01-19T05:50:58.818Z,7.43
2023-01-19T05:53:28.553Z,7.68
2023-01-19T05:56:00.789Z,6.88
2023-01-19T05:58:29.358Z,8.45
2023-01-19T06:00:56.993Z,7.20
2023-01-19T06:03:25.266Z,7.60
2023-01-19T06:05:52.840Z,8.18
2023-01-19T06:08:20.533Z,7.63
2023-01-19T06:10:49.493Z,8.40
2023-01-19T06:13:17.348Z,8.05
2023-01-19T06:15:45.107Z,8.23
2023-01-19T06:18:14.359Z,9.10
2023-01-19T06:20:42.437Z,7.97
2023-01-19T06:23:10.506Z,7.80
2023-01-19T06:25:38.167Z,7.78
2023-01-19T06:28:07.233Z,7.75
2023-01-19T06:30:34.850Z,7.97
2023-01-19T06:33:03.538Z,7.75
2023-01-19T06:35:31.235Z,7.70
2023-01-19T06:38:00.376Z,7.15
2023-01-19T06:40:28.026Z,7.60
2023-01-19T06:42:55.579Z,7.32
2023-01-19T06:45:24.497Z,6.63
2023-01-19T06:47:52.465Z,6.50
2023-01-19T06:50:20.044Z,6.45
2023-01-19T06:52:51.436Z,6.63
2023-01-19T06:55:19.166Z,6.38
2023-01-19T06:57:47.334Z,7.15
2023-01-19T07:00:16.332Z,7.13
2023-01-19T07:02:45.303Z,6.03
2023-01-19T07:05:14.624Z,6.28
2023-01-19T07:07:43.108Z,6.65
2023-01-19T07:10:14.354Z,6.72
2023-01-19T07:12:42.379Z,6.35
2023-01-19T07:15:35.009Z,7.13
2023-01-19T07:18:07.515Z,7.35
2023-01-19T07:20:37.635Z,7.65
2023-01-19T07:23:05.860Z,7.13
2023-01-19T07:25:35.384Z,7.47
2023-01-19T07:28:04.384Z,7.57
2023-01-19T07:33:29.800Z,6.68
2023-01-19T07:35:58.533Z,6.30
2023-01-19T07:38:27.452Z,6.90
2023-01-19T07:41:01.790Z,6.15
2023-01-19T07:43:29.380Z,6.00
2023-01-19T07:45:57.605Z,5.80
2023-01-19T07:48:25.206Z,6.20
2023-01-19T07:50:54.574Z,6.00
2023-01-19T07:53:22.387Z,6.28
2023-01-19T07:55:56.356Z,6.13
2023-01-19T07:58:25.204Z,6.15
2023-01-19T08:00:53.500Z,6.38
2023-01-19T08:03:21.843Z,6.00
2023-01-19T08:05:51.647Z,6.13
2023-01-19T08:08:20.833Z,5.68
2023-01-19T08:11:13.670Z,6.47
2023-01-19T08:13:42.355Z,6.55
2023-01-19T08:16:10.779Z,6.78
2023-01-19T08:18:38.477Z,6.93
2023-01-19T08:21:06.541Z,7.20
2023-01-19T08:23:36.380Z,7.70
2023-01-19T08:26:18.925Z,7.32
2023-01-19T08:28:48.120Z,7.20
2023-01-19T08:31:21.025Z,7.40
2023-01-19T08:33:49.441Z,8.45
2023-01-19T08:36:18.765Z,8.35
2023-01-19T08:38:48.432Z,8.40
2023-01-19T08:41:16.973Z,7.65
2023-01-19T08:43:45.356Z,8.32
2023-01-19T08:46:18.445Z,8.05
2023-01-19T08:48:48.079Z,7.63
2023-01-19T08:51:16.446Z,8.38
2023-01-19T08:53:44.226Z,8.88
2023-01-19T08:56:14.426Z,8.68
2023-01-19T08:58:43.625Z,8.32
2023-01-19T09:01:14.895Z,8.43
2023-01-19T09:03:42.600Z,8.23
2023-01-19T09:06:13.034Z,8.32
2023-01-19T09:08:41.481Z,8.00
2023-01-19T09:11:12.149Z,8.80
2023-01-19T09:13:43.553Z,7.72
2023-01-19T09:16:13.261Z,7.82
2023-01-19T09:18:41.086Z,8.15
2023-01-19T09:21:10.086Z,8.05
2023-01-19T09:23:38.136Z,7.25
2023-01-19T09:26:07.213Z,8.48
2023-01-19T09:28:35.332Z,7.03
2023-01-19T09:31:07.916Z,7.07
2023-01-19T09:33:37.555Z,6.80
2023-01-19T09:36:08.378Z,6.32
2023-01-19T09:38:35.884Z,6.22
2023-01-19T09:41:04.457Z,6.32
2023-01-19T09:43:40.718Z,6.60
2023-01-19T09:46:15.947Z,6.38
2023-01-19T09:48:47.716Z,6.20
2023-01-19T09:51:19.843Z,5.80
2023-01-19T09:53:57.878Z,6.97
2023-01-19T09:56:26.363Z,6.72
2023-01-19T09:58:57.437Z,6.30
2023-01-19T10:01:48.421Z,7.05
2023-01-19T10:04:43.382Z,6.43
2023-01-19T10:07:24.449Z,6.97
2023-01-19T10:10:07.428Z,7.28
2023-01-19T10:12:44.542Z,7.30
2023-01-19T10:15:25.387Z,6.60
2023-01-19T10:18:08.476Z,6.32
2023-01-19T10:20:39.818Z,6.72
2023-01-19T10:23:22.839Z,6.90
2023-01-19T10:25:53.058Z,7.00
2023-01-19T10:28:24.947Z,7.47
2023-01-19T10:30:55.063Z,8.07
2023-01-19T10:33:24.392Z,7.25
2023-01-19T10:35:51.992Z,8.23
2023-01-19T10:38:22.437Z,8.13
2023-01-19T10:40:57.426Z,7.50
2023-01-19T10:43:42.375Z,7.55
2023-01-19T10:46:22.482Z,8.10
2023-01-19T10:48:54.388Z,7.80
2023-01-19T10:51:24.362Z,7.47
2023-01-19T10:53:57.856Z,7.88
2023-01-19T10:56:28.356Z,8.98
2023-01-19T10:58:56.385Z,8.05
2023-01-19T11:01:25.563Z,8.00
2023-01-19T11:03:57.132Z,8.90
2023-01-19T11:06:29.920Z,8.10
2023-01-19T11:09:13.399Z,8.45
2023-01-19T11:11:44.431Z,10.63
2023-01-19T11:14:14.859Z,9.75
2023-01-19T11:16:48.392Z,10.13
2023-01-19T11:19:22.546Z,10.38
2023-01-19T11:21:50.181Z,11.15
2023-01-19T11:24:18.547Z,11.23
2023-01-19T11:26:49.014Z,12.60
2023-01-19T11:29:21.437Z,11.55
2023-01-19T11:31:57.527Z,12.50
2023-01-19T11:34:33.386Z,13.30
2023-01-19T11:37:05.317Z,13.10
2023-01-19T11:39:47.330Z,12.60
2023-01-19T11:44:48.414Z,12.35
2023-01-19T11:47:24.548Z,11.65
2023-01-19T11:50:07.430Z,13.23
2023-01-19T11:52:42.947Z,13.10
2023-01-19T11:55:20.682Z,13.38
2023-01-19T11:57:51.516Z,12.95
2023-01-19T12:00:28.618Z,13.88
2023-01-19T12:03:05.483Z,13.93
2023-01-19T12:05:36.382Z,14.40
2023-01-19T12:08:07.709Z,14.35
2023-01-19T12:10:41.496Z,13.95
2023-01-19T12:13:21.241Z,13.57
2023-01-19T12:15:51.667Z,13.52
2023-01-19T12:18:23.363Z,13.50
2023-01-19T12:20:58.695Z,13.18
2023-01-19T12:23:38.731Z,12.27
2023-01-19T12:26:27.836Z,12.88
2023-01-19T12:28:58.601Z,12.00
2023-01-19T12:31:26.583Z,11.38
2023-01-19T12:33:54.402Z,12.95
2023-01-19T12:36:40.335Z,11.95
2023-01-19T12:39:18.635Z,11.90
2023-01-19T12:41:47.145Z,12.38
2023-01-19T12:44:23.244Z,12.45
2023-01-19T12:46:57.223Z,11.98
2023-01-19T12:49:33.457Z,12.90
2023-01-19T12:52:27.962Z,11.90
2023-01-19T12:55:01.414Z,11.48
2023-01-19T12:57:34.170Z,12.02
2023-01-19T13:00:04.416Z,12.02
2023-01-19T13:02:51.952Z,11.97
2023-01-19T13:05:59.418Z,11.32
2023-01-19T13:08:51.409Z,12.50
2023-01-19T13:11:24.330Z,11.75
2023-01-19T13:14:35.506Z,12.10
2023-01-19T13:17:10.374Z,12.07
2023-01-19T13:20:13.037Z,12.77
2023-01-19T13:23:21.536Z,12.55
2023-01-19T13:25:54.619Z,12.13
2023-01-19T13:28:31.292Z,11.90
2023-01-19T13:31:02.478Z,12.68
2023-01-19T13:36:06.416Z,12.82
2023-01-19T13:38:34.226Z,12.25
2023-01-19T13:41:03.757Z,12.25
2023-01-19T13:43:39.743Z,12.13
2023-01-19T13:46:07.717Z,11.52
2023-01-19T13:48:35.601Z,11.80
2023-01-19T13:51:05.602Z,11.50
2023-01-19T13:53:34.123Z,11.07
2023-01-19T13:56:10.728Z,10.90
2023-01-19T13:58:39.621Z,11.60
2023-01-19T14:01:20.901Z,10.43
2023-01-19T14:03:52.157Z,10.38
2023-01-19T14:06:30.337Z,10.90
2023-01-19T14:09:23.512Z,10.60
2023-01-19T14:17:02.966Z,9.52
2023-01-19T14:19:30.627Z,10.88
2023-01-19T14:22:00.377Z,10.50
2023-01-19T14:24:32.371Z,10.05
2023-01-19T14:29:44.308Z,9.65
2023-01-19T14:32:17.104Z,10.85
2023-01-19T14:34:50.422Z,9.57
2023-01-19T14:37:24.245Z,11.40
2023-01-19T14:39:56.375Z,11.68
2023-01-19T14:42:28.539Z,12.40
2023-01-19T14:45:05.910Z,12.00
2023-01-19T14:47:38.075Z,12.52
2023-01-19T14:50:24.357Z,12.05
2023-01-19T14:52:57.226Z,11.57
2023-01-19T14:55:29.447Z,12.00
2023-01-19T14:58:01.062Z,11.48
2023-01-19T15:00:30.444Z,12.85
2023-01-19T15:02:58.857Z,10.98
2023-01-19T15:05:30.417Z,11.60
2023-01-19T15:07:59.306Z,12.30
2023-01-19T15:10:28.389Z,13.07
2023-01-19T15:12:56.811Z,13.10
2023-01-19T15:15:29.280Z,11.77
2023-01-19T15:18:01.984Z,12.10
2023-01-19T15:20:29.679Z,12.63
2023-01-19T15:22:57.432Z,12.95
2023-01-19T15:25:26.644Z,12.45
2023-01-19T15:27:58.128Z,11.98
2023-01-19T15:30:29.602Z,12.55
2023-01-19T15:32:58.867Z,13.32
2023-01-19T15:35:27.936Z,12.75
2023-01-19T15:37:55.746Z,14.02
2023-01-19T15:40:23.367Z,13.45
2023-01-19T15:42:51.677Z,15.07
2023-01-19T15:45:38.392Z,14.43
2023-01-19T15:48:07.411Z,13.57
2023-01-19T15:50:38.432Z,14.73
2023-01-19T15:53:07.260Z,14.68
2023-01-19T15:55:34.933Z,14.15
2023-01-19T15:58:04.419Z,14.50
2023-01-19T16:00:35.135Z,13.65
2023-01-19T16:03:04.202Z,13.75
2023-01-19T16:05:42.536Z,12.80
2023-01-19T16:08:13.452Z,14.32
2023-01-19T16:10:41.584Z,16.17
2023-01-19T16:13:09.487Z,15.48
2023-01-19T16:15:37.931Z,15.02
2023-01-19T16:18:06.465Z,14.60
2023-01-19T16:20:34.386Z,14.80
2023-01-19T16:23:14.817Z,16.35
2023-01-19T16:25:44.711Z,19.05
2023-01-19T16:28:12.395Z,18.08
2023-01-19T16:30:40.046Z,16.98
2023-01-19T16:33:08.328Z,14.57
2023-01-19T16:35:36.051Z,14.57
2023-01-19T16:38:03.951Z,14.02
2023-01-19T16:40:31.626Z,14.65
2023-01-19T16:43:00.534Z,15.98
2023-01-19T16:45:28.211Z,16.40
2023-01-19T16:47:57.465Z,15.80
2023-01-19T16:50:25.025Z,15.60
2023-01-19T16:52:57.460Z,16.05
2023-01-19T16:55:25.268Z,16.23
2023-01-19T16:57:53.454Z,16.13
2023-01-19T17:00:22.792Z,18.33
2023-01-19T17:02:50.348Z,18.88
2023-01-19T17:05:18.782Z,17.98
2023-01-19T17:07:46.409Z,18.48
2023-01-19T17:10:14.136Z,17.83
2023-01-19T17:12:42.438Z,18.08
2023-01-19T17:15:11.549Z,18.75
2023-01-19T17:17:40.481Z,17.85
2023-01-19T17:20:10.863Z,19.05
2023-01-19T17:22:38.650Z,19.35
2023-01-19T17:25:07.320Z,19.15
2023-01-19T17:27:37.401Z,17.77
2023-01-19T17:30:05.765Z,18.35
2023-01-19T17:32:33.457Z,18.13
2023-01-19T17:35:02.361Z,18.42
2023-01-19T17:37:29.981Z,16.88
2023-01-19T17:39:57.556Z,17.95
2023-01-19T17:42:25.272Z,17.58
2023-01-19T17:44:52.870Z,17.52
2023-01-19T17:47:25.372Z,17.17
2023-01-19T17:49:54.412Z,16.38
2023-01-19T17:52:24.211Z,17.08
2023-01-19T17:54:52.430Z,16.48
2023-01-19T17:57:20.042Z,16.33
2023-01-19T17:59:48.458Z,15.98
2023-01-19T18:02:16.257Z,17.35
2023-01-19T18:04:44.041Z,16.30
2023-01-19T18:07:11.671Z,17.90
2023-01-19T18:09:40.571Z,16.40
2023-01-19T18:12:08.416Z,16.17
2023-01-19T18:14:35.966Z,16.40
2023-01-19T18:17:03.637Z,15.70
2023-01-19T18:19:31.150Z,15.82
2023-01-19T18:21:58.809Z,16.33
2023-01-19T18:24:26.560Z,17.15
2023-01-19T18:26:55.876Z,16.55
2023-01-19T18:29:25.374Z,16.40
2023-01-19T18:31:53.087Z,16.45
2023-01-19T18:34:20.871Z,16.70
2023-01-19T18:36:48.524Z,16.45
2023-01-19T18:39:16.095Z,16.67
2023-01-19T18:41:43.648Z,16.45
2023-01-19T18:44:13.395Z,16.80
2023-01-19T18:46:41.545Z,16.88
2023-01-19T18:49:09.595Z,16.95
2023-01-19T18:51:39.401Z,17.52
2023-01-19T18:54:08.352Z,18.88
2023-01-19T18:56:35.983Z,19.23
2023-01-19T18:59:04.919Z,17.98
2023-01-19T19:01:34.975Z,25.60
2023-01-19T19:04:03.502Z,24.67
2023-01-19T19:06:31.245Z,26.33
2023-01-19T19:08:59.645Z,26.00
2023-01-19T19:11:27.940Z,21.75
2023-01-19T19:13:58.439Z,20.85
2023-01-19T19:16:26.033Z,19.38
2023-01-19T19:18:56.545Z,19.10
2023-01-19T19:21:25.622Z,21.40
2023-01-19T19:23:55.092Z,20.23
2023-01-19T19:26:23.470Z,21.05
2023-01-19T19:28:51.344Z,19.17
2023-01-19T19:31:21.656Z,21.60
2023-01-19T19:33:50.805Z,20.10
2023-01-19T19:36:20.819Z,20.65
2023-01-19T19:38:48.876Z,21.33
2023-01-19T19:41:19.198Z,21.42
2023-01-19T19:43:47.124Z,20.10
2023-01-19T19:46:16.891Z,20.92
2023-01-19T19:48:44.473Z,19.73
2023-01-19T19:51:19.429Z,20.67
2023-01-19T19:53:51.404Z,20.15
2023-01-19T19:58:48.844Z,19.30
2023-01-19T20:01:20.086Z,22.08
2023-01-19T20:03:47.953Z,21.25
2023-01-19T20:06:20.510Z,21.33
2023-01-19T20:08:50.518Z,20.65
2023-01-19T20:11:21.309Z,20.23
2023-01-19T20:13:49.195Z,21.55
2023-01-19T20:16:18.983Z,22.05
2023-01-19T20:18:50.993Z,20.95
2023-01-19T20:23:50.422Z,20.35
2023-01-19T20:26:20.373Z,19.92
2023-01-19T20:28:48.560Z,19.95
2023-01-19T20:31:19.431Z,19.45
2023-01-19T20:33:48.385Z,19.42
2023-01-19T20:36:16.340Z,27.60
2023-01-19T20:38:44.283Z,25.67
2023-01-19T20:43:45.342Z,21.50
2023-01-19T20:46:13.008Z,19.60
2023-01-19T20:48:41.506Z,20.83
2023-01-19T20:51:11.958Z,21.30
2023-01-19T20:53:41.847Z,21.40
2023-01-19T20:56:12.969Z,21.73
2023-01-19T20:58:43.356Z,19.67
2023-01-19T21:03:41.880Z,19.40
2023-01-19T21:06:09.661Z,21.15
2023-01-19T21:08:38.215Z,18.92
2023-01-19T21:11:07.369Z,20.55
2023-01-19T21:13:35.746Z,20.58
2023-01-19T21:16:05.279Z,18.27
2023-01-19T21:18:33.816Z,18.95
2023-01-19T21:21:01.430Z,19.17
2023-01-19T21:23:29.422Z,18.90
2023-01-19T21:25:58.978Z,17.95
2023-01-19T21:28:28.082Z,19.45
2023-01-19T21:30:56.539Z,19.85
2023-01-19T21:33:25.874Z,17.33
2023-01-19T21:35:54.672Z,17.67
2023-01-19T21:38:23.409Z,17.60
2023-01-19T21:40:51.132Z,18.20
2023-01-19T21:43:19.868Z,18.23
2023-01-19T21:45:49.396Z,18.90
2023-01-19T21:48:44.117Z,17.67
2023-01-19T21:51:11.723Z,17.83
2023-01-19T21:53:39.467Z,17.17
2023-01-19T21:56:08.879Z,18.88
2023-01-19T21:58:36.460Z,19.75
2023-01-19T22:01:06.437Z,19.02
2023-01-19T22:03:34.198Z,21.17
2023-01-19T22:06:06.150Z,19.83
2023-01-19T22:11:05.254Z,19.95
2023-01-19T22:13:34.409Z,20.38
2023-01-19T22:16:02.699Z,18.80
2023-01-19T22:18:31.323Z,20.42
2023-01-19T22:21:10.391Z,20.63
2023-01-19T22:23:38.448Z,19.95
2023-01-19T22:26:07.908Z,23.13
2023-01-19T22:28:36.440Z,21.40
2023-01-19T22:31:06.112Z,20.77
2023-01-19T22:33:34.322Z,23.67
2023-01-19T22:36:16.147Z,24.17
2023-01-19T22:41:13.694Z,20.40
2023-01-19T22:43:43.092Z,20.02
2023-01-19T22:46:11.394Z,20.77
2023-01-19T22:48:40.310Z,21.67
2023-01-19T22:51:08.096Z,21.45
2023-01-19T22:53:37.131Z,20.45
2023-01-19T22:56:13.796Z,21.02
2023-01-19T22:58:44.134Z,20.95
2023-01-19T23:01:14.470Z,20.65
2023-01-19T23:03:42.785Z,21.60
2023-01-19T23:06:12.312Z,22.13
2023-01-19T23:08:42.127Z,19.65
2023-01-19T23:11:12.661Z,21.52
2023-01-19T23:13:40.906Z,20.13
2023-01-19T23:16:09.961Z,21.08
2023-01-19T23:18:37.817Z,19.52
2023-01-19T23:21:07.295Z,20.13
2023-01-19T23:23:35.817Z,20.67
2023-01-19T23:26:06.958Z,20.63
2023-01-19T23:28:34.930Z,21.80
2023-01-19T23:31:14.175Z,21.48
2023-01-19T23:33:43.921Z,21.38
2023-01-19T23:36:12.385Z,22.65
2023-01-19T23:38:40.733Z,23.27
2023-01-19T23:41:09.938Z,21.67
2023-01-19T23:47:22.650Z,22.40
2023-01-19T23:49:50.507Z,20.65
2023-01-19T23:52:18.147Z,20.65
2023-01-19T23:54:45.876Z,21.23
2023-01-19T23:57:14.775Z,22.35
2023-01-19T23:59:42.536Z,21.60
